Time;durP1;ratioP1;P1;durP2;ratioP2;P2;SDS_P1;SDS_P2;PMS_P1;PMS_P2;Temp;Humidity;BMP_temperature;BMP_pressure;BME280_temperature;BME280_humidity;BME280_pressure;Samples;Min_cycle;Max_cycle;Signal;HPM_P1;HPM_P2
2021/06/22 00:00:49;;;;;;;29.95;7.88;;;17.40;85.00;;;;;;5075950;28;20006;-74
2021/06/22 00:03:14;;;;;;;;;;;17.30;85.70;;;;;;5076085;28;20022;-73
2021/06/22 00:05:40;;;;;;;28.27;7.78;;;17.20;86.40;;;;;;5075608;28;19904;-73
2021/06/22 00:08:06;;;;;;;;;;;17.20;86.40;;;;;;5076474;28;20039;-73
2021/06/22 00:10:32;;;;;;;27.02;7.70;;;17.20;86.30;;;;;;5075513;28;19961;-74
2021/06/22 00:12:58;;;;;;;25.60;7.35;;;17.30;86.00;;;;;;5075815;28;20107;-73
2021/06/22 00:15:26;;;;;;;21.70;7.60;;;17.30;86.50;;;;;;5075546;28;20029;-74
2021/06/22 00:17:53;;;;;;;21.02;6.88;;;17.20;86.60;;;;;;5075396;28;20073;-74
2021/06/22 00:20:21;;;;;;;26.75;6.88;;;17.30;87.00;;;;;;5075276;28;20056;-74
2021/06/22 00:22:48;;;;;;;22.85;7.28;;;17.40;85.70;;;;;;5073945;28;20028;-73
2021/06/22 00:25:16;;;;;;;23.45;7.07;;;17.50;85.70;;;;;;5073746;28;20550;-74
2021/06/22 00:27:42;;;;;;;21.35;6.53;;;17.40;85.80;;;;;;5075142;28;20024;-73
2021/06/22 00:30:09;;;;;;;25.52;7.07;;;17.50;85.70;;;;;;5075142;28;20023;-74
2021/06/22 00:32:36;;;;;;;18.05;6.45;;;17.50;85.60;;;;;;5075072;28;20514;-76
2021/06/22 00:35:03;;;;;;;18.92;6.97;;;17.60;85.40;;;;;;5075058;28;20028;-74
2021/06/22 00:37:29;;;;;;;23.83;7.63;;;17.60;85.70;;;;;;5074548;28;20037;-73
2021/06/22 00:39:54;;;;;;;;;;;17.60;85.30;;;;;;5075351;28;20388;-74
2021/06/22 00:42:20;;;;;;;22.13;6.35;;;17.60;85.50;;;;;;5075286;28;19912;-74
2021/06/22 00:44:46;;;;;;;;;;;17.70;85.20;;;;;;5075283;28;20017;-75
2021/06/22 00:47:13;;;;;;;22.23;7.88;;;17.70;85.50;;;;;;5074772;28;19905;-73
2021/06/22 00:49:39;;;;;;;19.73;6.05;;;17.60;85.60;;;;;;5074827;28;20500;-74
2021/06/22 00:52:05;;;;;;;;;;;17.60;85.90;;;;;;5075092;28;20024;-75
2021/06/22 00:54:31;;;;;;;17.20;6.60;;;17.60;85.90;;;;;;5075060;28;19914;-75
2021/06/22 00:56:56;;;;;;;;;;;17.60;85.70;;;;;;5075328;28;20044;-73
2021/06/22 00:59:22;;;;;;;23.45;7.22;;;17.40;86.10;;;;;;5074725;28;19904;-72
2021/06/22 01:01:48;;;;;;;;;;;17.40;86.10;;;;;;5074559;28;20028;-74
2021/06/22 01:04:13;;;;;;;18.30;6.88;;;17.40;86.50;;;;;;5074377;28;19904;-74
2021/06/22 01:06:39;;;;;;;;;;;17.40;86.00;;;;;;5074819;28;20025;-73
2021/06/22 01:09:06;;;;;;;16.80;7.15;;;17.20;86.40;;;;;;5074366;28;19912;-74
2021/06/22 01:11:32;;;;;;;18.05;7.20;;;17.20;86.10;;;;;;5074299;28;20062;-75
2021/06/22 01:13:57;;;;;;;;;;;17.20;86.00;;;;;;5074962;28;20024;-74
2021/06/22 01:16:25;;;;;;;17.67;6.68;;;17.20;86.40;;;;;;5074280;28;19977;-73
2021/06/22 01:19:03;;;;;;;17.55;7.10;;;17.20;86.10;;;;;;5074129;28;20366;-74
2021/06/22 01:21:30;;;;;;;18.08;6.70;;;17.20;86.80;;;;;;5074248;28;20051;-74
2021/06/22 01:24:04;;;;;;;20.48;7.28;;;17.20;86.00;;;;;;5074061;28;20017;-74
2021/06/22 01:26:29;;;;;;;18.45;6.80;;;17.20;86.40;;;;;;5074060;28;20023;-73
2021/06/22 01:28:55;;;;;;;;;;;17.20;86.10;;;;;;5074481;28;20021;-75
2021/06/22 01:31:22;;;;;;;21.58;7.75;;;17.20;85.80;;;;;;5074091;28;19908;-73
2021/06/22 01:33:48;;;;;;;16.60;7.65;;;17.10;86.40;;;;;;5073886;28;20024;-73
2021/06/22 01:36:14;;;;;;;20.10;7.95;;;17.20;86.20;;;;;;5073184;28;20036;-74
2021/06/22 01:38:41;;;;;;;23.02;7.20;;;17.20;85.80;;;;;;5073737;28;20550;-73
2021/06/22 01:41:07;;;;;;;15.43;7.32;;;17.30;85.70;;;;;;5073620;28;20025;-73
2021/06/22 01:43:32;;;;;;;;;;;17.20;85.50;;;;;;5074141;28;20063;-74
2021/06/22 01:45:58;;;;;;;18.77;7.05;;;17.20;85.70;;;;;;5073746;28;19940;-74
2021/06/22 01:48:24;;;;;;;;;;;17.20;85.80;;;;;;5074018;28;20431;-74
2021/06/22 01:50:49;;;;;;;16.67;6.43;;;17.20;86.30;;;;;;5074023;28;20422;-74
2021/06/22 01:53:15;;;;;;;;;;;17.40;85.20;;;;;;5074140;28;20025;-73
2021/06/22 01:55:43;;;;;;;17.13;6.70;;;17.40;84.90;;;;;;5073708;28;19908;-75
2021/06/22 01:58:11;;;;;;;17.98;6.70;;;17.40;85.30;;;;;;5073681;28;20025;-74
2021/06/22 02:00:38;;;;;;;18.33;7.00;;;17.50;85.30;;;;;;5073489;28;20522;-72
2021/06/22 02:03:05;;;;;;;22.50;7.68;;;17.40;85.40;;;;;;5073582;28;20016;-75
2021/06/22 02:05:31;;;;;;;15.60;6.55;;;17.40;85.40;;;;;;5073534;28;20025;-74
2021/06/22 02:07:56;;;;;;;;;;;17.30;85.90;;;;;;5072629;28;20388;-74
2021/06/22 02:10:22;;;;;;;16.20;6.40;;;17.30;86.20;;;;;;5073502;28;19904;-74
2021/06/22 02:12:48;;;;;;;;;;;17.30;85.50;;;;;;5074070;28;20115;-75
2021/06/22 02:15:14;;;;;;;20.02;7.50;;;17.30;85.60;;;;;;5073438;28;19904;-74
2021/06/22 02:17:40;;;;;;;18.23;6.97;;;17.20;86.30;;;;;;5073489;28;20361;-75
2021/06/22 02:20:06;;;;;;;;;;;17.20;86.60;;;;;;5073759;28;20027;-74
2021/06/22 02:22:32;;;;;;;17.55;7.55;;;17.20;86.70;;;;;;5073245;28;19904;-74
2021/06/22 02:24:59;;;;;;;18.30;7.05;;;17.30;86.00;;;;;;5073780;28;20391;-74
2021/06/22 02:27:27;;;;;;;23.08;8.63;;;17.30;85.80;;;;;;5073247;28;20035;-72
2021/06/22 02:29:52;;;;;;;19.95;8.27;;;17.30;86.10;;;;;;5073250;28;20016;-74
2021/06/22 02:32:18;;;;;;;;;;;17.30;86.10;;;;;;5073675;28;20035;-74
2021/06/22 02:34:44;;;;;;;18.33;7.30;;;17.40;85.90;;;;;;5073259;28;19904;-73
2021/06/22 02:37:10;;;;;;;;;;;17.40;85.60;;;;;;5073289;28;20098;-73
2021/06/22 02:39:35;;;;;;;18.02;7.75;;;17.50;85.80;;;;;;5073111;28;19905;-73
2021/06/22 02:42:01;;;;;;;;;;;17.50;85.50;;;;;;5073687;28;20032;-73
2021/06/22 02:44:27;;;;;;;21.75;8.77;;;17.40;85.50;;;;;;5073250;28;19936;-74
2021/06/22 02:46:52;;;;;;;;;;;17.30;86.20;;;;;;5073492;28;20033;-76
2021/06/22 02:49:18;;;;;;;19.80;8.75;;;17.30;85.90;;;;;;5075664;28;19904;-73
2021/06/22 02:51:43;;;;;;;;;;;17.20;86.00;;;;;;5077523;28;20387;-73
2021/06/22 02:54:09;;;;;;;17.10;7.97;;;17.20;86.40;;;;;;5077532;28;19904;-74
2021/06/22 02:56:35;;;;;;;;;;;17.20;87.00;;;;;;5077861;28;20031;-73
2021/06/22 02:59:00;;;;;;;20.95;8.27;;;17.20;86.20;;;;;;5077120;28;20349;-74
2021/06/22 03:01:26;;;;;;;;;;;17.20;86.70;;;;;;5077323;28;20060;-73
2021/06/22 03:03:52;;;;;;;20.67;9.02;;;17.10;86.70;;;;;;5076925;28;19904;-72
2021/06/22 03:06:17;;;;;;;;;;;17.10;86.80;;;;;;5077308;28;20413;-74
2021/06/22 03:08:43;;;;;;;22.52;9.98;;;17.20;86.80;;;;;;5076850;28;19927;-73
2021/06/22 03:11:09;;;;;;;;;;;17.20;85.90;;;;;;5077282;28;20503;-73
2021/06/22 03:13:34;;;;;;;21.00;8.70;;;17.20;86.00;;;;;;5076748;28;19912;-74
2021/06/22 03:16:00;;;;;;;;;;;17.20;86.10;;;;;;5077078;28;20029;-74
2021/06/22 03:18:26;;;;;;;20.05;8.80;;;17.20;86.40;;;;;;5076640;28;20474;-74
2021/06/22 03:20:51;;;;;;;;;;;17.10;85.90;;;;;;5077344;28;20031;-75
2021/06/22 03:23:17;;;;;;;20.75;9.57;;;17.10;85.70;;;;;;5076725;28;20003;-74
2021/06/22 03:25:43;;;;;;;;;;;17.00;86.10;;;;;;5076968;28;20388;-75
2021/06/22 03:28:08;;;;;;;20.95;9.45;;;17.10;86.20;;;;;;5076524;28;20379;-74
2021/06/22 03:30:34;;;;;;;;;;;17.10;86.10;;;;;;5076851;28;20036;-74
2021/06/22 03:33:00;;;;;;;18.13;8.98;;;17.10;85.80;;;;;;5076416;28;19911;-74
2021/06/22 03:35:29;;;;;;;;;;;17.00;86.30;;;;;;5076854;28;20020;-75
2021/06/22 03:37:55;;;;;;;23.40;7.68;;;16.90;86.60;;;;;;5076405;28;19940;-74
2021/06/22 03:40:21;;;;;;;20.75;7.57;;;16.80;86.10;;;;;;5076170;28;20428;-75
2021/06/22 03:42:48;;;;;;;15.40;6.65;;;16.80;86.60;;;;;;5076154;28;20078;-74
2021/06/22 03:45:15;;;;;;;10.43;4.60;;;16.80;86.40;;;;;;5076136;28;20025;-73
2021/06/22 03:47:41;;;;;;;10.00;4.00;;;16.80;86.10;;;;;;5076134;28;20021;-74
2021/06/22 03:50:08;;;;;;;10.95;4.25;;;16.80;85.50;;;;;;5076221;28;20020;-74
2021/06/22 03:52:34;;;;;;;10.35;3.63;;;16.70;85.70;;;;;;5075996;28;20182;-74
2021/06/22 03:55:00;;;;;;;;;;;16.70;85.80;;;;;;5075084;28;20418;-73
2021/06/22 03:57:26;;;;;;;8.63;3.70;;;16.50;86.40;;;;;;5076244;28;19905;-73
2021/06/22 03:59:51;;;;;;;;;;;16.40;86.60;;;;;;5075970;28;20063;-74
2021/06/22 04:02:18;;;;;;;10.90;3.70;;;16.40;86.90;;;;;;5075851;28;19908;-74
2021/06/22 04:04:44;;;;;;;8.88;3.50;;;16.30;87.30;;;;;;5075779;28;20380;-74
2021/06/22 04:07:10;;;;;;;9.65;3.97;;;16.30;87.60;;;;;;5075792;28;20028;-74
2021/06/22 04:09:36;;;;;;;;;;;16.30;87.00;;;;;;5076108;28;20040;-75
2021/06/22 04:12:02;;;;;;;10.60;4.13;;;16.40;87.10;;;;;;5075836;28;19905;-73
2021/06/22 04:14:28;;;;;;;;;;;16.50;86.60;;;;;;5076050;28;20023;-73
2021/06/22 04:16:53;;;;;;;14.15;4.55;;;16.40;85.60;;;;;;5075609;28;19904;-73
2021/06/22 04:19:19;;;;;;;13.13;5.32;;;16.20;86.70;;;;;;5075513;28;20109;-73
2021/06/22 04:21:45;;;;;;;16.38;6.05;;;16.00;87.60;;;;;;5075478;28;20020;-74
2021/06/22 04:24:11;;;;;;;14.20;5.93;;;16.00;87.90;;;;;;5075439;28;20024;-72
2021/06/22 04:26:36;;;;;;;;;;;16.10;87.00;;;;;;5075818;28;20024;-74
2021/06/22 04:29:03;;;;;;;16.10;6.03;;;16.10;88.70;;;;;;5075371;28;19904;-74
2021/06/22 04:31:29;;;;;;;17.50;6.82;;;16.00;87.20;;;;;;5075401;28;20032;-73
2021/06/22 04:33:55;;;;;;;21.45;6.72;;;15.90;87.10;;;;;;5075235;28;20032;-75
2021/06/22 04:36:21;;;;;;;21.33;6.70;;;15.90;87.50;;;;;;5075045;28;20048;-74
2021/06/22 04:38:46;;;;;;;;;;;15.80;87.60;;;;;;5075599;28;20077;-75
2021/06/22 04:41:14;;;;;;;16.75;6.32;;;15.70;87.30;;;;;;5075081;28;19912;-73
2021/06/22 04:43:39;;;;;;;17.33;7.93;;;15.80;87.50;;;;;;5075100;28;20024;-75
2021/06/22 04:46:05;;;;;;;18.23;5.95;;;15.90;87.50;;;;;;5075499;28;20024;-72
2021/06/22 04:48:31;;;;;;;24.02;7.20;;;15.80;86.50;;;;;;5075373;28;20041;-73
2021/06/22 04:50:58;;;;;;;;;;;15.80;86.80;;;;;;5075277;28;20392;-74
2021/06/22 04:53:26;;;;;;;20.35;7.15;;;15.80;87.20;;;;;;5074876;28;20287;-73
2021/06/22 04:55:52;;;;;;;22.52;6.80;;;15.90;86.30;;;;;;5074777;28;20085;-73
2021/06/22 04:58:18;;;;;;;22.98;6.53;;;15.80;86.80;;;;;;5074776;28;20028;-72
2021/06/22 05:00:44;;;;;;;;;;;15.90;85.70;;;;;;5075185;28;20029;-75
2021/06/22 05:03:09;;;;;;;15.60;5.30;;;15.90;86.10;;;;;;5074761;28;20434;-72
2021/06/22 05:05:35;;;;;;;;;;;15.80;86.20;;;;;;5075118;28;20017;-75
2021/06/22 05:08:01;;;;;;;20.02;5.10;;;15.90;85.60;;;;;;5074591;28;20295;-74
2021/06/22 05:10:26;;;;;;;;;;;15.90;85.50;;;;;;5074444;28;20070;-73
2021/06/22 05:12:52;;;;;;;17.25;5.25;;;15.80;85.90;;;;;;5074195;28;19908;-74
2021/06/22 05:15:18;;;;;;;;;;;15.70;86.70;;;;;;5074770;28;20550;-74
2021/06/22 05:17:44;;;;;;;15.95;5.07;;;15.80;86.40;;;;;;5074338;28;19904;-74
2021/06/22 05:20:10;;;;;;;13.70;5.00;;;15.80;86.40;;;;;;5074355;28;20074;-74
2021/06/22 05:22:36;;;;;;;;;;;15.90;86.30;;;;;;5074936;28;20059;-72
2021/06/22 05:25:04;;;;;;;12.13;4.18;;;16.00;85.30;;;;;;5074214;28;19908;-74
2021/06/22 05:27:30;;;;;;;15.48;4.50;;;15.90;86.40;;;;;;5074290;28;20036;-73
2021/06/22 05:29:55;;;;;;;13.68;4.60;;;15.80;85.90;;;;;;5074153;28;20021;-73
2021/06/22 05:32:21;;;;;;;;;;;15.90;85.50;;;;;;5074511;28;20039;-73
2021/06/22 05:34:47;;;;;;;14.35;5.18;;;15.80;85.20;;;;;;5074101;28;19905;-75
2021/06/22 05:37:12;;;;;;;;;;;15.80;86.20;;;;;;5074207;28;20040;-74
2021/06/22 05:39:38;;;;;;;12.82;4.40;;;15.80;86.10;;;;;;5074023;28;19918;-73
2021/06/22 05:42:04;;;;;;;;;;;15.80;85.90;;;;;;5074325;28;20034;-74
2021/06/22 05:44:30;;;;;;;11.73;3.92;;;15.80;86.10;;;;;;5074187;28;19954;-74
2021/06/22 05:46:55;;;;;;;;;;;15.80;85.70;;;;;;5074401;28;20020;-74
2021/06/22 05:49:21;;;;;;;13.85;4.25;;;15.90;85.20;;;;;;5073713;28;19908;-75
2021/06/22 05:51:46;;;;;;;;;;;15.70;85.40;;;;;;5074174;28;20020;-73
2021/06/22 05:54:13;;;;;;;14.35;4.72;;;15.70;85.80;;;;;;5073805;28;20003;-73
2021/06/22 05:56:39;;;;;;;12.18;3.80;;;15.70;84.60;;;;;;5073640;28;20021;-74
2021/06/22 05:59:04;;;;;;;9.85;3.30;;;15.80;85.30;;;;;;5073560;28;20055;-74
2021/06/22 06:01:30;;;;;;;;;;;15.90;85.50;;;;;;5073967;28;20374;-72
2021/06/22 06:06:41;;;;;;;12.82;3.08;;;16.00;84.70;;;;;;5073420;28;20032;-74
2021/06/22 06:09:07;;;;;;;12.35;3.38;;;16.10;83.90;;;;;;5073553;28;20044;-74
2021/06/22 06:11:33;;;;;;;8.65;2.70;;;16.20;83.90;;;;;;5073531;28;20075;-72
2021/06/22 06:13:58;;;;;;;;;;;16.10;84.10;;;;;;5073934;28;20025;-74
2021/06/22 06:16:24;;;;;;;10.43;2.80;;;16.10;83.40;;;;;;5073646;28;19904;-73
2021/06/22 06:18:50;;;;;;;;;;;16.30;82.50;;;;;;5073815;28;20028;-73
2021/06/22 06:21:15;;;;;;;10.13;2.75;;;16.30;82.50;;;;;;5073301;28;19915;-74
2021/06/22 06:23:43;;;;;;;;;;;16.20;83.20;;;;;;5073469;28;20027;-73
2021/06/22 06:26:12;;;;;;;9.27;2.30;;;16.20;82.60;;;;;;5073689;28;19904;-73
2021/06/22 06:28:44;;;;;;;7.85;2.28;;;16.20;82.70;;;;;;5073290;28;20473;-75
2021/06/22 06:31:10;;;;;;;10.02;2.20;;;16.30;81.90;;;;;;5073352;28;20017;-75
2021/06/22 06:33:35;;;;;;;;;;;16.20;82.50;;;;;;5073691;28;20038;-75
2021/06/22 06:36:01;;;;;;;10.05;2.50;;;16.30;82.30;;;;;;5073416;28;20003;-73
2021/06/22 06:38:27;;;;;;;;;;;16.30;82.60;;;;;;5073644;28;20029;-74
2021/06/22 06:40:52;;;;;;;8.48;2.10;;;16.40;82.40;;;;;;5073089;28;19958;-74
2021/06/22 06:43:18;;;;;;;;;;;16.50;81.90;;;;;;5073415;28;20051;-74
2021/06/22 06:45:44;;;;;;;10.27;3.70;;;16.50;80.50;;;;;;5073304;28;19943;-74
2021/06/22 06:48:09;;;;;;;;;;;16.40;81.20;;;;;;5073733;28;20100;-72
2021/06/22 06:50:35;;;;;;;5.85;2.20;;;16.40;82.00;;;;;;5073064;28;19912;-73
2021/06/22 06:53:01;;;;;;;;;;;16.30;81.40;;;;;;5073427;28;20032;-75
2021/06/22 06:55:35;;;;;;;9.80;2.17;;;16.40;81.30;;;;;;5073044;28;20355;-72
2021/06/22 06:58:04;;;;;;;8.82;2.55;;;16.50;80.90;;;;;;5071410;28;20055;-75
2021/06/22 07:00:33;;;;;;;6.63;2.17;;;16.50;80.90;;;;;;5072884;28;20036;-75
2021/06/22 07:03:00;;;;;;;9.30;2.30;;;16.50;81.10;;;;;;5072964;28;20444;-74
2021/06/22 07:05:26;;;;;;;8.38;2.22;;;16.50;81.00;;;;;;5072903;28;20021;-73
2021/06/22 07:07:52;;;;;;;8.80;2.25;;;16.50;81.00;;;;;;5072804;28;20044;-73
2021/06/22 07:10:18;;;;;;;;;;;16.40;81.40;;;;;;5073363;28;20421;-73
2021/06/22 07:12:45;;;;;;;6.53;2.10;;;16.50;81.00;;;;;;5072872;28;19911;-75
2021/06/22 07:15:12;;;;;;;8.65;2.10;;;16.50;80.90;;;;;;5072795;28;20056;-74
2021/06/22 07:17:38;;;;;;;7.95;2.38;;;16.50;81.30;;;;;;5072821;28;20029;-73
2021/06/22 07:20:04;;;;;;;;;;;16.50;81.60;;;;;;5073202;28;20115;-73
2021/06/22 07:22:30;;;;;;;8.95;1.92;;;16.50;81.40;;;;;;5072562;28;19908;-74
2021/06/22 07:24:56;;;;;;;;;;;16.40;81.40;;;;;;5073137;28;20431;-73
2021/06/22 07:27:21;;;;;;;7.78;1.90;;;16.40;80.90;;;;;;5073173;28;19909;-75
2021/06/22 07:29:47;;;;;;;;;;;16.40;80.90;;;;;;5072964;28;20025;-74
2021/06/22 07:32:13;;;;;;;9.30;2.15;;;16.50;81.10;;;;;;5072705;28;19954;-74
2021/06/22 07:34:38;;;;;;;;;;;16.60;80.50;;;;;;5074402;28;20559;-73
2021/06/22 07:37:04;;;;;;;4.72;1.42;;;16.60;80.80;;;;;;5076191;28;19918;-75
2021/06/22 07:39:30;;;;;;;;;;;16.70;80.40;;;;;;5076976;28;20439;-72
2021/06/22 07:41:56;;;;;;;5.10;1.50;;;16.70;80.70;;;;;;5074884;28;20003;-75
2021/06/22 07:44:21;;;;;;;;;;;16.60;80.90;;;;;;5076550;28;20028;-75
2021/06/22 07:46:47;;;;;;;5.88;1.60;;;16.60;80.90;;;;;;5076171;28;19904;-72
2021/06/22 07:49:13;;;;;;;;;;;16.40;81.70;;;;;;5076699;28;20028;-75
2021/06/22 07:51:38;;;;;;;5.45;1.50;;;16.30;82.00;;;;;;5076283;28;19905;-72
2021/06/22 07:54:04;;;;;;;;;;;16.30;82.50;;;;;;5076400;28;20024;-74
2021/06/22 07:56:30;;;;;;;6.18;1.65;;;16.30;82.30;;;;;;5075990;28;20264;-73
2021/06/22 07:58:56;;;;;;;;;;;16.30;82.50;;;;;;5076337;28;20441;-75
2021/06/22 08:01:22;;;;;;;8.38;1.60;;;16.30;82.90;;;;;;5074289;28;20019;-74
2021/06/22 08:03:48;;;;;;;6.18;1.65;;;16.40;82.10;;;;;;5076007;28;20059;-73
2021/06/22 08:06:13;;;;;;;;;;;16.50;82.60;;;;;;5076222;28;20017;-73
2021/06/22 08:08:39;;;;;;;5.60;1.70;;;16.70;81.60;;;;;;5075761;28;19911;-73
2021/06/22 08:11:05;;;;;;;;;;;16.70;81.90;;;;;;5076161;28;20035;-74
2021/06/22 08:13:31;;;;;;;7.47;1.70;;;16.60;82.40;;;;;;5076276;28;20030;-74
2021/06/22 08:15:58;;;;;;;6.15;1.55;;;16.60;82.70;;;;;;5076199;28;20074;-73
2021/06/22 08:18:25;;;;;;;5.30;1.73;;;16.60;82.20;;;;;;5075603;28;20024;-73
2021/06/22 08:20:51;;;;;;;5.15;1.45;;;16.70;82.30;;;;;;5075117;28;20155;-75
2021/06/22 08:23:18;;;;;;;4.82;1.58;;;16.80;82.10;;;;;;5075834;28;20032;-72
2021/06/22 08:25:44;;;;;;;4.00;1.60;;;16.90;81.70;;;;;;5075388;28;20025;-75
2021/06/22 08:28:10;;;;;;;6.65;1.48;;;16.90;81.40;;;;;;5075387;28;20104;-74
2021/06/22 08:30:36;;;;;;;;;;;16.80;81.00;;;;;;5075912;28;20100;-74
2021/06/22 08:33:03;;;;;;;3.50;1.45;;;16.70;81.60;;;;;;5075236;28;19914;-73
2021/06/22 08:35:33;;;;;;;4.43;1.77;;;16.60;82.60;;;;;;5075083;28;20032;-74
2021/06/22 08:38:00;;;;;;;5.15;1.40;;;16.70;82.30;;;;;;5073684;28;20059;-75
2021/06/22 08:40:26;;;;;;;4.47;1.38;;;16.80;81.80;;;;;;5075101;28;20024;-73
2021/06/22 08:42:52;;;;;;;3.75;1.38;;;17.00;81.00;;;;;;5075123;28;20043;-73
2021/06/22 08:45:18;;;;;;;4.90;1.40;;;17.20;80.10;;;;;;5075066;28;20472;-73
2021/06/22 08:47:45;;;;;;;4.30;1.20;;;17.30;79.60;;;;;;5075001;28;20492;-74
2021/06/22 08:50:13;;;;;;;4.78;1.55;;;17.50;78.80;;;;;;5075127;28;20044;-72
2021/06/22 08:52:39;;;;;;;4.00;1.30;;;17.60;78.90;;;;;;5075012;28;20408;-73
2021/06/22 08:55:09;;;;;;;3.25;1.20;;;17.90;77.60;;;;;;5074704;28;20090;-74
2021/06/22 08:57:36;;;;;;;3.55;1.30;;;18.30;75.90;;;;;;5074988;28;20024;-74
2021/06/22 09:00:03;;;;;;;10.80;1.40;;;18.80;75.20;;;;;;5073486;28;20077;-75
2021/06/22 09:02:29;;;;;;;3.70;1.30;;;19.10;74.20;;;;;;5074720;28;20028;-73
2021/06/22 09:04:58;;;;;;;4.43;1.40;;;19.30;71.80;;;;;;5074840;28;20017;-74
2021/06/22 09:07:56;;;;;;;3.80;1.20;;;19.30;71.70;;;;;;5074678;28;20017;-75
2021/06/22 09:10:30;;;;;;;4.88;1.40;;;19.60;71.60;;;;;;5074960;28;20104;-73
2021/06/22 09:12:58;;;;;;;3.10;1.20;;;19.70;69.20;;;;;;5074770;28;20035;-74
2021/06/22 09:15:29;;;;;;;6.72;1.40;;;19.50;70.10;;;;;;5074435;28;20468;-74
2021/06/22 09:17:56;;;;;;;4.50;1.40;;;19.60;70.30;;;;;;5074665;28;20517;-74
2021/06/22 09:20:41;;;;;;;4.63;1.45;;;19.70;70.80;;;;;;5074275;28;20021;-74
2021/06/22 09:23:18;;;;;;;4.53;1.50;;;19.40;70.50;;;;;;5074362;28;20445;-74
2021/06/22 09:25:46;;;;;;;6.57;1.80;;;19.40;70.70;;;;;;5074286;28;20020;-74
2021/06/22 09:28:14;;;;;;;5.03;1.50;;;19.10;70.50;;;;;;5074165;28;20095;-74
2021/06/22 09:30:40;;;;;;;4.05;1.70;;;18.70;71.80;;;;;;5074207;28;20551;-75
2021/06/22 09:33:30;;;;;;;5.28;1.70;;;18.70;72.00;;;;;;5074214;28;20028;-74
2021/06/22 09:35:59;;;;;;;6.07;1.60;;;18.60;72.80;;;;;;5073777;28;20445;-73
2021/06/22 09:38:36;;;;;;;6.25;1.80;;;18.60;73.80;;;;;;5074011;28;20071;-74
2021/06/22 09:41:10;;;;;;;9.85;1.90;;;18.40;72.70;;;;;;5073914;28;20032;-75
2021/06/22 09:43:38;;;;;;;4.90;1.85;;;18.30;73.60;;;;;;5074030;28;20021;-74
2021/06/22 09:46:06;;;;;;;6.88;1.90;;;18.30;73.30;;;;;;5072534;28;20566;-74
2021/06/22 09:48:57;;;;;;;6.30;1.92;;;18.40;72.30;;;;;;5073820;28;20028;-74
2021/06/22 09:51:32;;;;;;;6.35;1.80;;;18.40;72.90;;;;;;5073771;28;20025;-73
2021/06/22 09:54:11;;;;;;;6.78;2.05;;;18.40;73.00;;;;;;5073877;28;20430;-73
2021/06/22 09:56:37;;;;;;;5.97;2.10;;;18.30;72.70;;;;;;5073363;28;20020;-74
2021/06/22 09:59:07;;;;;;;9.38;2.13;;;18.20;73.30;;;;;;5073526;28;20085;-73
2021/06/22 10:01:35;;;;;;;8.38;2.20;;;18.10;72.90;;;;;;5072214;28;20480;-74
2021/06/22 10:04:17;;;;;;;9.32;1.92;;;18.00;72.90;;;;;;5073599;28;20073;-74
2021/06/22 10:06:53;;;;;;;8.38;2.58;;;17.90;74.30;;;;;;5073541;28;20507;-72
2021/06/22 10:09:21;;;;;;;8.05;2.20;;;17.90;73.90;;;;;;5073550;28;20017;-74
2021/06/22 10:11:54;;;;;;;7.75;2.80;;;17.80;74.00;;;;;;5073455;28;20497;-73
2021/06/22 10:14:28;;;;;;;7.32;2.30;;;17.90;74.40;;;;;;5073499;28;20392;-73
2021/06/22 10:16:57;;;;;;;7.97;2.50;;;17.80;74.40;;;;;;5073638;28;20029;-74
2021/06/22 10:19:23;;;;;;;9.38;2.50;;;17.70;74.60;;;;;;5073448;28;20050;-74
2021/06/22 10:21:50;;;;;;;7.65;2.47;;;17.80;74.20;;;;;;5073266;28;20017;-72
2021/06/22 10:24:18;;;;;;;7.60;2.45;;;17.80;73.80;;;;;;5071961;28;20081;-75
2021/06/22 10:26:44;;;;;;;9.20;2.50;;;17.50;74.70;;;;;;5073569;28;20020;-74
2021/06/22 10:29:11;;;;;;;10.52;2.80;;;17.40;74.90;;;;;;5073304;28;20465;-73
2021/06/22 10:31:37;;;;;;;7.05;2.38;;;17.40;75.10;;;;;;5073265;28;20020;-74
2021/06/22 10:34:02;;;;;;;8.55;2.60;;;17.50;75.00;;;;;;5073330;28;20082;-74
2021/06/22 10:36:34;;;;;;;8.95;2.72;;;17.60;73.70;;;;;;5073010;28;20115;-74
2021/06/22 10:39:05;;;;;;;10.00;3.05;;;17.60;73.90;;;;;;5073318;28;20058;-74
2021/06/22 10:41:41;;;;;;;7.75;2.50;;;17.70;73.90;;;;;;5073179;28;20029;-74
2021/06/22 10:44:09;;;;;;;9.05;2.90;;;17.80;74.20;;;;;;5073769;28;20012;-74
2021/06/22 10:46:35;;;;;;;6.90;2.60;;;17.90;74.40;;;;;;5073362;28;20021;-74
2021/06/22 10:49:18;;;;;;;8.85;2.42;;;17.80;74.30;;;;;;5073152;28;20096;-72
2021/06/22 10:51:48;;;;;;;6.93;2.63;;;17.70;75.60;;;;;;5073176;28;20035;-74
2021/06/22 10:54:51;;;;;;;8.52;2.75;;;17.80;75.10;;;;;;5073436;28;20021;-74
2021/06/22 10:57:17;;;;;;;7.28;2.65;;;17.80;74.10;;;;;;5072984;28;20035;-74
2021/06/22 11:00:00;;;;;;;7.68;2.60;;;18.00;74.50;;;;;;5073029;28;20028;-73
2021/06/22 11:02:58;;;;;;;8.55;2.40;;;18.10;73.10;;;;;;5073148;28;20028;-74
2021/06/22 11:05:24;;;;;;;8.70;2.40;;;18.40;72.50;;;;;;5072816;28;20051;-74
2021/06/22 11:08:09;;;;;;;7.65;2.45;;;18.50;72.40;;;;;;5072927;28;20121;-73
2021/06/22 11:10:36;;;;;;;7.30;2.40;;;18.50;71.10;;;;;;5074132;28;20023;-74
2021/06/22 11:13:03;;;;;;;6.75;2.50;;;18.70;71.20;;;;;;5066769;28;20032;-74
2021/06/22 11:15:50;;;;;;;6.93;2.33;;;18.50;71.10;;;;;;5074609;28;20021;-73
2021/06/22 11:18:18;;;;;;;6.32;2.40;;;18.40;72.10;;;;;;5076665;28;20107;-74
2021/06/22 11:21:05;;;;;;;7.90;2.72;;;18.50;72.40;;;;;;5076772;28;20100;-75
2021/06/22 11:23:52;;;;;;;8.70;2.38;;;18.40;70.80;;;;;;5076624;28;20400;-74
2021/06/22 11:26:18;;;;;;;7.88;2.47;;;18.30;71.80;;;;;;5072480;28;20036;-75
2021/06/22 11:29:03;;;;;;;12.18;3.08;;;18.20;71.90;;;;;;5076484;28;20388;-72
2021/06/22 11:31:43;;;;;;;11.23;2.60;;;18.20;71.70;;;;;;5076566;28;20082;-73
2021/06/22 11:34:20;;;;;;;7.60;2.60;;;18.30;71.20;;;;;;5076699;28;20442;-71
2021/06/22 11:36:49;;;;;;;10.00;3.10;;;18.20;71.70;;;;;;5076239;28;20135;-73
2021/06/22 11:39:19;;;;;;;8.25;2.53;;;18.10;71.40;;;;;;5076421;28;20060;-71
2021/06/22 11:42:10;;;;;;;13.57;2.95;;;18.10;71.30;;;;;;5076235;28;20029;-71
2021/06/22 11:44:45;;;;;;;7.93;2.63;;;18.10;71.00;;;;;;5076124;28;20058;-72
2021/06/22 11:47:26;;;;;;;12.85;3.90;;;18.10;70.90;;;;;;5076305;28;20021;-72
2021/06/22 11:49:54;;;;;;;7.78;2.67;;;18.10;70.70;;;;;;5076360;28;20463;-71
2021/06/22 11:52:22;;;;;;;9.93;3.00;;;18.10;71.00;;;;;;5076043;28;20036;-71
2021/06/22 11:54:51;;;;;;;7.28;2.50;;;18.10;69.70;;;;;;5075983;28;20021;-72
2021/06/22 11:57:28;;;;;;;10.27;3.08;;;18.00;71.00;;;;;;5075972;28;20503;-72
2021/06/22 12:00:05;;;;;;;7.28;2.65;;;17.80;70.40;;;;;;5075913;28;20052;-70
2021/06/22 12:02:31;;;;;;;8.95;3.00;;;17.90;70.70;;;;;;5074329;28;20454;-72
2021/06/22 12:04:57;;;;;;;11.55;3.15;;;17.70;70.70;;;;;;5075779;28;20042;-72
2021/06/22 12:07:22;;;;;;;;;;;17.60;71.80;;;;;;5076114;28;20025;-72
2021/06/22 12:09:49;;;;;;;10.07;3.20;;;17.50;71.20;;;;;;5075970;28;20276;-72
2021/06/22 12:12:15;;;;;;;9.77;2.90;;;17.50;71.40;;;;;;5075690;28;20052;-72
2021/06/22 12:14:46;;;;;;;11.77;3.38;;;17.60;72.00;;;;;;5075632;28;20107;-72
2021/06/22 12:17:18;;;;;;;8.98;3.13;;;17.60;71.40;;;;;;5075595;28;20028;-71
2021/06/22 12:19:45;;;;;;;8.18;3.00;;;17.40;71.60;;;;;;5075151;28;20032;-71
2021/06/22 12:22:16;;;;;;;9.88;3.20;;;17.50;72.30;;;;;;5075318;28;20505;-73
2021/06/22 12:24:45;;;;;;;9.63;3.35;;;17.40;71.80;;;;;;5075485;28;20105;-72
2021/06/22 12:27:11;;;;;;;8.75;2.90;;;17.30;72.20;;;;;;5075434;28;20098;-70
2021/06/22 12:29:39;;;;;;;9.23;3.45;;;17.30;72.10;;;;;;5075469;28;20074;-73
2021/06/22 12:32:11;;;;;;;8.88;3.30;;;17.50;71.80;;;;;;5075247;28;20031;-72
2021/06/22 12:34:39;;;;;;;8.02;2.80;;;17.50;71.60;;;;;;5075771;28;20028;-73
2021/06/22 12:37:20;;;;;;;8.68;3.30;;;17.40;71.30;;;;;;5075111;28;20041;-73
2021/06/22 12:39:48;;;;;;;9.60;3.35;;;17.30;71.70;;;;;;5075233;28;20100;-73
2021/06/22 12:42:20;;;;;;;8.20;3.33;;;17.30;71.90;;;;;;5075074;28;20075;-72
2021/06/22 12:44:47;;;;;;;7.28;3.28;;;17.40;71.70;;;;;;5073561;28;20060;-71
2021/06/22 12:47:13;;;;;;;8.70;3.33;;;17.40;71.50;;;;;;5075412;28;20015;-72
2021/06/22 12:49:40;;;;;;;10.77;3.40;;;17.40;71.00;;;;;;5075158;28;20032;-72
2021/06/22 12:52:08;;;;;;;9.15;3.30;;;17.40;71.70;;;;;;5074927;28;20035;-73
2021/06/22 12:54:36;;;;;;;11.43;3.25;;;17.30;71.60;;;;;;5074927;28;20042;-72
2021/06/22 12:57:18;;;;;;;7.72;3.20;;;17.50;71.30;;;;;;5074818;28;20028;-71
2021/06/22 12:59:49;;;;;;;7.85;3.20;;;17.90;70.20;;;;;;5075043;28;20504;-71
2021/06/22 13:02:15;;;;;;;8.68;3.38;;;18.00;69.60;;;;;;5074799;28;20074;-72
2021/06/22 13:04:50;;;;;;;8.20;3.33;;;17.90;69.70;;;;;;5074657;28;20066;-72
2021/06/22 13:07:18;;;;;;;8.10;3.28;;;17.90;69.00;;;;;;5075018;28;20024;-72